createdAt,value
2022-09-06T00:01:21.749Z,20.66
2022-09-06T00:03:51.921Z,20.63
2022-09-06T00:06:21.457Z,20.60
2022-09-06T00:08:50.474Z,20.52
2022-09-06T00:11:20.523Z,20.46
2022-09-06T00:13:50.456Z,20.44
2022-09-06T00:16:25.391Z,20.41
2022-09-06T00:18:56.838Z,20.37
2022-09-06T00:21:29.394Z,20.30
2022-09-06T00:23:59.837Z,20.22
2022-09-06T00:26:28.952Z,20.15
2022-09-06T00:29:12.802Z,20.12
2022-09-06T00:31:48.813Z,20.06
2022-09-06T00:34:19.469Z,20.03
2022-09-06T00:36:52.308Z,19.98
2022-09-06T00:39:22.167Z,19.95
2022-09-06T00:41:53.183Z,19.90
2022-09-06T00:44:25.531Z,19.88
2022-09-06T00:47:00.090Z,19.91
2022-09-06T00:49:35.307Z,19.92
2022-09-06T00:52:10.769Z,19.93
2022-09-06T00:54:40.889Z,19.94
2022-09-06T00:57:10.307Z,19.94
2022-09-06T00:59:41.729Z,19.96
2022-09-06T01:02:11.239Z,20.02
2022-09-06T01:04:44.113Z,20.04
2022-09-06T01:07:26.213Z,20.00
2022-09-06T01:10:09.348Z,19.97
2022-09-06T01:12:50.137Z,19.97
2022-09-06T01:15:31.155Z,19.93
2022-09-06T01:18:16.220Z,19.90
2022-09-06T01:21:01.595Z,19.88
2022-09-06T01:24:05.453Z,19.89
2022-09-06T01:27:12.461Z,19.89
2022-09-06T01:29:48.384Z,19.80
2022-09-06T01:32:26.400Z,19.76
2022-09-06T01:35:03.787Z,19.69
2022-09-06T01:37:33.560Z,19.67
2022-09-06T01:40:03.839Z,19.68
2022-09-06T01:42:34.646Z,19.70
2022-09-06T01:45:07.942Z,19.69
2022-09-06T01:47:47.853Z,19.69
2022-09-06T01:50:40.281Z,19.67
2022-09-06T01:53:22.737Z,19.68
2022-09-06T01:55:58.808Z,19.66
2022-09-06T01:58:45.716Z,19.67
2022-09-06T02:01:21.475Z,19.69
2022-09-06T02:03:59.804Z,19.70
2022-09-06T02:06:32.022Z,19.70
2022-09-06T02:09:06.879Z,19.71
2022-09-06T02:11:42.539Z,19.71
2022-09-06T02:14:15.700Z,19.71
2022-09-06T02:16:47.784Z,19.70
2022-09-06T02:19:21.952Z,19.67
2022-09-06T02:21:55.015Z,19.65
2022-09-06T02:24:29.870Z,19.66
2022-09-06T02:26:59.085Z,19.66
2022-09-06T02:29:28.052Z,19.65
2022-09-06T02:32:04.055Z,19.60
2022-09-06T02:34:39.245Z,19.58
2022-09-06T02:37:08.805Z,19.57
2022-09-06T02:39:39.216Z,19.56
2022-09-06T02:42:10.089Z,19.54
2022-09-06T02:44:39.906Z,19.52
2022-09-06T02:47:09.310Z,19.52
2022-09-06T02:49:38.854Z,19.53
2022-09-06T02:52:08.137Z,19.56
2022-09-06T02:54:37.208Z,19.57
2022-09-06T02:57:06.348Z,19.56
2022-09-06T02:59:37.165Z,19.55
2022-09-06T03:02:06.379Z,19.54
2022-09-06T03:04:35.455Z,19.54
2022-09-06T03:07:04.831Z,19.55
2022-09-06T03:09:33.924Z,19.56
2022-09-06T03:12:04.116Z,19.57
2022-09-06T03:14:35.529Z,19.56
2022-09-06T03:17:05.217Z,19.56
2022-09-06T03:19:34.828Z,19.57
2022-09-06T03:22:03.925Z,19.58
2022-09-06T03:24:33.152Z,19.58
2022-09-06T03:27:02.383Z,19.55
2022-09-06T03:29:31.538Z,19.53
2022-09-06T03:32:01.497Z,19.53
2022-09-06T03:34:30.682Z,19.48
2022-09-06T03:36:59.738Z,19.44
2022-09-06T03:39:29.345Z,19.41
2022-09-06T03:41:58.549Z,19.42
2022-09-06T03:44:27.587Z,19.45
2022-09-06T03:46:56.648Z,19.46
2022-09-06T03:49:25.815Z,19.45
2022-09-06T03:51:55.110Z,19.42
2022-09-06T03:54:24.538Z,19.37
2022-09-06T03:56:53.921Z,19.36
2022-09-06T03:59:23.174Z,19.38
2022-09-06T04:01:54.703Z,19.37
2022-09-06T04:04:24.279Z,19.35
2022-09-06T04:06:53.179Z,19.34
2022-09-06T04:09:23.785Z,19.34
2022-09-06T04:11:57.631Z,19.35
2022-09-06T04:14:26.910Z,19.37
2022-09-06T04:16:56.098Z,19.37
2022-09-06T04:19:25.365Z,19.39
2022-09-06T04:21:54.638Z,19.39
2022-09-06T04:24:23.674Z,19.39
2022-09-06T04:26:52.854Z,19.35
2022-09-06T04:29:22.280Z,19.33
2022-09-06T04:31:52.134Z,19.32
2022-09-06T04:34:21.715Z,19.33
2022-09-06T04:36:50.768Z,19.35
2022-09-06T04:39:20.614Z,19.36
2022-09-06T04:41:50.085Z,19.38
2022-09-06T04:44:19.155Z,19.35
2022-09-06T04:46:48.494Z,19.36
2022-09-06T04:49:17.463Z,19.35
2022-09-06T04:51:47.145Z,19.37
2022-09-06T04:54:16.246Z,19.38
2022-09-06T04:56:45.413Z,19.36
2022-09-06T04:59:14.569Z,19.34
2022-09-06T05:01:43.753Z,19.29
2022-09-06T05:04:12.878Z,19.29
2022-09-06T05:06:42.734Z,19.29
2022-09-06T05:09:12.489Z,19.26
2022-09-06T05:11:42.090Z,19.24
2022-09-06T05:14:11.140Z,19.23
2022-09-06T05:16:40.418Z,19.22
2022-09-06T05:19:09.528Z,19.21
2022-09-06T05:21:38.542Z,19.21
2022-09-06T05:24:07.842Z,19.15
2022-09-06T05:26:38.293Z,19.10
2022-09-06T05:29:07.504Z,19.06
2022-09-06T05:31:36.691Z,19.03
2022-09-06T05:34:05.765Z,19.01
2022-09-06T05:36:35.197Z,19.04
2022-09-06T05:39:04.307Z,19.08
2022-09-06T05:41:33.500Z,19.15
2022-09-06T05:44:03.270Z,19.22
2022-09-06T05:46:32.388Z,19.31
2022-09-06T05:49:04.348Z,19.38
2022-09-06T05:51:33.554Z,19.44
2022-09-06T05:54:02.773Z,19.48
2022-09-06T05:56:31.731Z,19.54
2022-09-06T05:59:00.918Z,19.56
2022-09-06T06:01:30.964Z,19.59
2022-09-06T06:04:01.974Z,19.53
2022-09-06T06:06:32.956Z,19.40
2022-09-06T06:09:03.765Z,19.37
2022-09-06T06:11:33.306Z,19.41
2022-09-06T06:14:03.916Z,19.48
2022-09-06T06:16:33.487Z,19.59
2022-09-06T06:19:02.439Z,19.67
2022-09-06T06:21:33.417Z,19.72
2022-09-06T06:24:04.216Z,19.70
2022-09-06T06:26:36.341Z,19.70
2022-09-06T06:29:08.951Z,19.76
2022-09-06T06:31:41.092Z,19.81
2022-09-06T06:34:10.569Z,19.88
2022-09-06T06:36:39.799Z,19.93
2022-09-06T06:39:10.805Z,19.96
2022-09-06T06:41:40.536Z,20.01
2022-09-06T06:44:10.160Z,20.05
2022-09-06T06:46:42.902Z,20.10
2022-09-06T06:49:13.868Z,20.15
2022-09-06T06:51:43.116Z,20.15
2022-09-06T06:54:12.140Z,20.13
2022-09-06T06:56:42.045Z,20.19
2022-09-06T06:59:11.374Z,20.24
2022-09-06T07:01:40.602Z,20.28
2022-09-06T07:04:11.822Z,20.32
2022-09-06T07:12:30.355Z,20.40
2022-09-06T07:14:59.627Z,20.44
2022-09-06T07:17:29.294Z,20.49
2022-09-06T07:20:14.300Z,20.55
2022-09-06T07:22:44.469Z,20.59
2022-09-06T07:25:20.550Z,20.61
2022-09-06T07:28:00.580Z,20.61
2022-09-06T07:30:31.601Z,20.61
2022-09-06T07:33:01.241Z,20.64
2022-09-06T07:35:30.095Z,20.69
2022-09-06T07:38:01.206Z,20.70
2022-09-06T07:40:31.425Z,20.69
2022-09-06T07:43:00.966Z,20.70
2022-09-06T07:45:29.955Z,20.77
2022-09-06T07:47:59.491Z,20.87
2022-09-06T07:53:29.326Z,21.01
2022-09-06T07:56:01.418Z,21.06
2022-09-06T07:58:31.409Z,21.08
2022-09-06T08:01:19.956Z,21.15
2022-09-06T08:03:49.256Z,21.21
2022-09-06T08:06:18.556Z,21.17
2022-09-06T08:09:02.673Z,21.17
2022-09-06T08:11:33.793Z,21.23
2022-09-06T08:14:04.832Z,21.32
2022-09-06T08:16:36.014Z,21.37
2022-09-06T08:19:07.921Z,21.43
2022-09-06T08:21:37.276Z,21.51
2022-09-06T08:24:09.205Z,21.58
2022-09-06T08:26:39.994Z,21.66
2022-09-06T08:29:10.341Z,21.75
2022-09-06T08:31:42.337Z,21.83
2022-09-06T08:34:12.271Z,21.86
2022-09-06T08:36:42.547Z,21.94
2022-09-06T08:39:12.293Z,22.00
2022-09-06T08:41:48.836Z,22.03
2022-09-06T08:47:13.748Z,22.14
2022-09-06T08:49:45.613Z,22.17
2022-09-06T08:52:28.769Z,22.21
2022-09-06T08:55:10.998Z,22.22
2022-09-06T08:57:51.940Z,22.25
2022-09-06T09:00:22.709Z,22.27
2022-09-06T09:03:01.184Z,22.33
2022-09-06T09:05:33.235Z,22.36
2022-09-06T09:08:13.318Z,22.39
2022-09-06T09:10:45.809Z,22.43
2022-09-06T09:13:28.695Z,22.49
2022-09-06T09:16:00.658Z,22.53
2022-09-06T09:18:33.821Z,22.58
2022-09-06T09:21:02.955Z,22.63
2022-09-06T09:23:32.216Z,22.67
2022-09-06T09:26:06.063Z,22.70
2022-09-06T09:28:35.386Z,22.72
2022-09-06T09:31:07.164Z,22.69
2022-09-06T09:33:38.506Z,22.69
2022-09-06T09:36:12.719Z,22.70
2022-09-06T09:38:45.819Z,22.73
2022-09-06T09:41:27.324Z,22.78
2022-09-06T09:44:03.674Z,22.81
2022-09-06T09:46:36.070Z,22.88
2022-09-06T09:49:09.140Z,22.92
2022-09-06T09:51:42.634Z,22.94
2022-09-06T09:54:14.540Z,22.97
2022-09-06T09:56:47.992Z,23.00
2022-09-06T09:59:26.258Z,23.02
2022-09-06T10:01:59.499Z,23.08
2022-09-06T10:04:43.904Z,23.11
2022-09-06T10:07:16.703Z,23.14
2022-09-06T10:09:48.393Z,23.17
2022-09-06T10:12:28.989Z,23.20
2022-09-06T10:15:01.204Z,23.21
2022-09-06T10:17:34.847Z,23.21
2022-09-06T10:20:08.436Z,23.22
2022-09-06T10:22:49.422Z,23.24
2022-09-06T10:25:37.955Z,23.20
2022-09-06T10:28:23.636Z,23.11
2022-09-06T10:31:06.741Z,23.06
2022-09-06T10:33:45.060Z,23.08
2022-09-06T10:36:19.564Z,23.11
2022-09-06T10:38:54.528Z,23.14
2022-09-06T10:42:00.554Z,23.20
2022-09-06T10:44:45.532Z,23.24
2022-09-06T10:47:16.154Z,23.27
2022-09-06T10:49:49.373Z,23.31
2022-09-06T10:52:24.408Z,23.37
2022-09-06T10:54:57.188Z,23.44
2022-09-06T11:00:22.829Z,23.54
2022-09-06T11:05:54.989Z,23.66
2022-09-06T11:08:49.719Z,23.67
2022-09-06T11:11:26.499Z,23.62
2022-09-06T11:13:55.946Z,23.60
2022-09-06T11:16:29.256Z,23.62
2022-09-06T11:19:03.703Z,23.67
2022-09-06T11:22:02.169Z,23.71
2022-09-06T11:24:45.172Z,23.76
2022-09-06T11:27:21.946Z,23.84
2022-09-06T11:29:55.951Z,23.88
2022-09-06T11:32:37.468Z,23.89
2022-09-06T11:35:10.727Z,23.92
2022-09-06T11:37:44.247Z,23.94
2022-09-06T11:43:14.150Z,23.99
2022-09-06T11:45:47.138Z,24.02
2022-09-06T11:48:48.535Z,24.02
2022-09-06T11:51:34.496Z,24.02
2022-09-06T11:54:21.671Z,24.09
2022-09-06T11:57:00.806Z,24.17
2022-09-06T11:59:45.091Z,24.21
2022-09-06T12:02:46.622Z,24.26
2022-09-06T12:05:19.471Z,24.33
2022-09-06T12:08:28.656Z,24.33
2022-09-06T12:11:06.884Z,24.39
2022-09-06T12:13:41.422Z,24.45
2022-09-06T12:16:20.268Z,24.49
2022-09-06T12:18:59.968Z,24.49
2022-09-06T12:21:46.782Z,24.55
2022-09-06T12:24:51.005Z,24.61
2022-09-06T12:27:21.764Z,24.67
2022-09-06T12:29:58.369Z,24.76
2022-09-06T12:32:36.075Z,24.85
2022-09-06T12:38:03.256Z,25.03
2022-09-06T12:40:35.310Z,25.11
2022-09-06T12:43:05.288Z,25.21
2022-09-06T12:45:34.571Z,25.27
2022-09-06T12:48:08.979Z,25.34
2022-09-06T12:50:38.683Z,25.43
2022-09-06T12:53:23.935Z,25.54
2022-09-06T12:56:05.571Z,25.74
2022-09-06T12:58:35.847Z,25.91
2022-09-06T13:01:12.761Z,26.03
2022-09-06T13:03:45.537Z,26.05
2022-09-06T13:06:23.237Z,26.11
2022-09-06T13:08:57.388Z,26.17
2022-09-06T13:11:30.950Z,26.19
2022-09-06T13:14:03.504Z,26.17
2022-09-06T13:16:37.821Z,26.15
2022-09-06T13:19:17.660Z,26.14
2022-09-06T13:21:47.277Z,26.13
2022-09-06T13:24:24.655Z,26.11
2022-09-06T13:26:54.588Z,26.16
2022-09-06T13:29:24.843Z,26.26
2022-09-06T13:31:56.905Z,26.43
2022-09-06T13:34:28.368Z,26.55
2022-09-06T13:37:03.359Z,26.61
2022-09-06T13:39:34.186Z,26.77
2022-09-06T13:42:08.363Z,26.97
2022-09-06T13:44:39.675Z,27.09
2022-09-06T13:47:08.778Z,27.10
2022-09-06T13:49:37.662Z,27.06
2022-09-06T13:52:07.588Z,27.09
2022-09-06T13:54:39.712Z,27.10
2022-09-06T13:57:09.347Z,27.30
2022-09-06T13:59:38.829Z,27.60
2022-09-06T14:02:11.682Z,27.86
2022-09-06T14:04:40.811Z,28.24
2022-09-06T14:07:09.929Z,28.61
2022-09-06T14:09:39.219Z,28.82
2022-09-06T14:12:09.778Z,28.94
2022-09-06T14:14:39.041Z,28.99
2022-09-06T14:17:08.230Z,29.06
2022-09-06T14:19:38.590Z,29.18
2022-09-06T14:22:08.721Z,29.27
2022-09-06T14:24:38.674Z,29.42
2022-09-06T14:27:08.422Z,29.56
2022-09-06T14:29:38.350Z,29.68
2022-09-06T14:32:10.720Z,29.84
2022-09-06T14:34:41.711Z,30.02
2022-09-06T14:37:13.533Z,30.10
2022-09-06T14:39:43.206Z,30.22
2022-09-06T14:42:12.952Z,30.43
2022-09-06T14:44:42.225Z,30.58
2022-09-06T14:47:12.258Z,30.65
2022-09-06T14:49:41.344Z,30.66
2022-09-06T14:52:10.389Z,30.77
2022-09-06T14:54:39.922Z,30.80
2022-09-06T14:57:13.766Z,30.70
2022-09-06T14:59:42.941Z,30.73
2022-09-06T15:02:12.214Z,30.63
2022-09-06T15:04:41.293Z,30.61
2022-09-06T15:07:10.632Z,30.44
2022-09-06T15:09:40.445Z,30.37
2022-09-06T15:12:09.645Z,30.49
2022-09-06T15:14:40.651Z,30.63
2022-09-06T15:17:10.668Z,30.54
2022-09-06T15:19:39.863Z,30.49
2022-09-06T15:22:09.006Z,30.38
2022-09-06T15:24:38.154Z,30.32
2022-09-06T15:27:07.420Z,30.27
2022-09-06T15:29:36.461Z,30.14
2022-09-06T15:32:05.859Z,30.00
2022-09-06T15:34:35.144Z,29.82
2022-09-06T15:37:04.309Z,29.65
2022-09-06T15:39:33.564Z,29.60
2022-09-06T15:42:02.701Z,29.69
2022-09-06T15:44:32.668Z,29.68
2022-09-06T15:47:01.851Z,29.55
2022-09-06T15:49:32.372Z,29.49
2022-09-06T15:52:05.483Z,29.46
2022-09-06T15:54:52.740Z,29.35
2022-09-06T15:57:22.382Z,29.25
2022-09-06T15:59:51.896Z,29.13
2022-09-06T16:02:21.785Z,29.09
2022-09-06T16:04:51.409Z,29.09
2022-09-06T16:07:20.728Z,28.98
2022-09-06T16:09:49.782Z,28.83
2022-09-06T16:12:18.844Z,28.82
2022-09-06T16:14:48.106Z,28.83
2022-09-06T16:17:17.199Z,28.80
2022-09-06T16:19:46.331Z,28.78
2022-09-06T16:22:15.613Z,28.70
2022-09-06T16:24:44.792Z,28.56
2022-09-06T16:27:14.020Z,28.36
2022-09-06T16:29:44.659Z,28.17
2022-09-06T16:32:13.761Z,28.01
2022-09-06T16:34:42.915Z,27.90
2022-09-06T16:37:12.438Z,27.68
2022-09-06T16:39:42.577Z,27.42
2022-09-06T16:42:12.761Z,27.23
2022-09-06T16:44:42.116Z,27.08
2022-09-06T16:47:14.789Z,26.93
2022-09-06T16:49:46.229Z,26.75
2022-09-06T16:52:15.283Z,26.58
2022-09-06T16:54:44.317Z,26.43
2022-09-06T16:57:14.465Z,26.27
2022-09-06T16:59:43.597Z,26.13
2022-09-06T17:02:12.774Z,26.00
2022-09-06T17:04:42.457Z,25.86
2022-09-06T17:07:11.539Z,25.77
2022-09-06T17:09:41.212Z,25.66
2022-09-06T17:12:10.632Z,25.52
2022-09-06T17:14:39.905Z,25.39
2022-09-06T17:17:09.476Z,25.19
2022-09-06T17:19:40.939Z,25.03
2022-09-06T17:22:12.159Z,24.93
2022-09-06T17:24:41.759Z,24.84
2022-09-06T17:27:11.001Z,24.74
2022-09-06T17:29:40.347Z,24.63
2022-09-06T17:32:10.209Z,24.55
2022-09-06T17:34:40.718Z,24.48
2022-09-06T17:37:09.907Z,24.38
2022-09-06T17:39:39.921Z,24.27
2022-09-06T17:42:09.237Z,24.18
2022-09-06T17:44:46.570Z,24.07
2022-09-06T17:47:16.095Z,23.98
2022-09-06T17:49:46.750Z,23.87
2022-09-06T17:52:16.378Z,23.65
2022-09-06T17:54:46.755Z,23.54
2022-09-06T17:57:16.054Z,23.50
2022-09-06T17:59:45.211Z,23.43
2022-09-06T18:02:14.427Z,23.38
2022-09-06T18:04:43.689Z,23.34
2022-09-06T18:07:12.893Z,23.27
2022-09-06T18:09:43.706Z,23.20
2022-09-06T18:12:13.319Z,23.15
2022-09-06T18:14:42.317Z,23.11
2022-09-06T18:17:11.422Z,22.95
2022-09-06T18:19:40.659Z,22.86
2022-09-06T18:22:09.889Z,22.77
2022-09-06T18:24:39.447Z,22.70
2022-09-06T18:27:08.809Z,22.62
2022-09-06T18:29:38.810Z,22.60
2022-09-06T18:32:08.433Z,22.59
2022-09-06T18:34:37.706Z,22.50
2022-09-06T18:37:06.960Z,22.37
2022-09-06T18:39:36.224Z,22.27
2022-09-06T18:42:10.612Z,22.13
2022-09-06T18:44:40.479Z,22.07
2022-09-06T18:47:11.686Z,22.07
2022-09-06T18:49:44.134Z,22.09
2022-09-06T18:52:15.350Z,22.07
2022-09-06T18:54:44.698Z,22.05
2022-09-06T18:57:15.347Z,22.03
2022-09-06T18:59:44.660Z,22.01
2022-09-06T19:02:13.771Z,22.00
2022-09-06T19:04:42.935Z,21.98
2022-09-06T19:07:12.467Z,21.95
2022-09-06T19:09:41.671Z,21.92
2022-09-06T19:12:11.528Z,21.88
2022-09-06T19:14:41.105Z,21.86
2022-09-06T19:17:10.114Z,21.78
2022-09-06T19:19:39.292Z,21.64
2022-09-06T19:22:08.744Z,21.57
2022-09-06T19:24:38.626Z,21.54
2022-09-06T19:27:07.882Z,21.44
2022-09-06T19:29:37.176Z,21.38
2022-09-06T19:32:06.671Z,21.35
2022-09-06T19:34:36.173Z,21.35
2022-09-06T19:37:05.742Z,21.42
2022-09-06T19:39:37.152Z,21.59
2022-09-06T19:42:07.559Z,21.76
2022-09-06T19:44:37.202Z,21.85
2022-09-06T19:47:13.304Z,21.95
2022-09-06T19:49:43.212Z,22.06
2022-09-06T19:52:12.839Z,22.16
2022-09-06T19:54:42.820Z,22.25
2022-09-06T19:57:12.224Z,22.33
2022-09-06T19:59:48.793Z,22.41
2022-09-06T20:02:22.207Z,22.50
2022-09-06T20:04:54.281Z,22.55
2022-09-06T20:07:28.000Z,22.59
2022-09-06T20:09:57.251Z,22.61
2022-09-06T20:12:29.157Z,22.64
2022-09-06T20:14:58.924Z,22.67
2022-09-06T20:17:35.531Z,22.71
2022-09-06T20:20:07.971Z,22.76
2022-09-06T20:22:37.460Z,22.80
2022-09-06T20:25:11.373Z,22.84
2022-09-06T20:27:44.429Z,22.86
2022-09-06T20:30:14.235Z,22.88
2022-09-06T20:32:43.569Z,22.90
2022-09-06T20:35:13.550Z,22.93
2022-09-06T20:37:42.852Z,22.95
2022-09-06T20:40:13.401Z,22.97
2022-09-06T20:42:45.485Z,22.99
2022-09-06T20:45:15.253Z,23.00
2022-09-06T20:47:44.627Z,23.00
2022-09-06T20:50:13.726Z,23.02
2022-09-06T20:52:42.809Z,23.03
2022-09-06T20:55:12.331Z,23.04
2022-09-06T20:57:41.732Z,23.05
2022-09-06T21:00:15.867Z,23.06
2022-09-06T21:02:45.854Z,23.06
2022-09-06T21:05:16.137Z,23.06
2022-09-06T21:07:45.139Z,23.07
2022-09-06T21:10:15.216Z,23.06
2022-09-06T21:12:44.414Z,23.07
2022-09-06T21:15:13.848Z,23.07
2022-09-06T21:17:44.245Z,23.08
2022-09-06T21:20:13.733Z,23.07
2022-09-06T21:22:43.996Z,23.06
2022-09-06T21:25:13.576Z,23.05
2022-09-06T21:27:43.121Z,23.05
2022-09-06T21:30:14.777Z,23.05
2022-09-06T21:32:43.906Z,23.06
2022-09-06T21:35:13.448Z,23.06
2022-09-06T21:37:42.523Z,23.04
2022-09-06T21:40:12.201Z,23.03
2022-09-06T21:42:41.464Z,23.03
2022-09-06T21:45:12.581Z,23.01
2022-09-06T21:47:41.924Z,22.99
2022-09-06T21:50:12.419Z,22.98
2022-09-06T21:52:41.850Z,22.98
2022-09-06T21:55:15.440Z,22.98
2022-09-06T21:57:45.275Z,22.97
2022-09-06T22:00:16.146Z,22.94
2022-09-06T22:02:45.051Z,22.88
2022-09-06T22:05:14.987Z,22.87
2022-09-06T22:07:44.000Z,22.87
2022-09-06T22:10:13.043Z,22.86
2022-09-06T22:12:43.466Z,22.86
2022-09-06T22:15:13.255Z,22.86
2022-09-06T22:17:42.804Z,22.88
2022-09-06T22:20:12.891Z,22.89
2022-09-06T22:22:43.525Z,22.88
2022-09-06T22:25:13.105Z,22.88
2022-09-06T22:27:42.773Z,22.84
2022-09-06T22:30:13.764Z,22.73
2022-09-06T22:32:42.988Z,22.73
2022-09-06T22:35:12.409Z,22.74
2022-09-06T22:37:41.669Z,22.72
2022-09-06T22:40:12.118Z,22.73
2022-09-06T22:42:41.641Z,22.74
2022-09-06T22:45:11.698Z,22.72
2022-09-06T22:47:41.198Z,22.68
2022-09-06T22:50:11.923Z,22.68
2022-09-06T22:52:41.145Z,22.69
2022-09-06T22:55:11.308Z,22.69
2022-09-06T22:57:40.736Z,22.70
2022-09-06T23:00:12.544Z,22.70
2022-09-06T23:02:42.138Z,22.70
2022-09-06T23:05:11.524Z,22.70
2022-09-06T23:07:42.943Z,22.70
2022-09-06T23:10:12.431Z,22.70
2022-09-06T23:12:41.918Z,22.69
2022-09-06T23:15:12.011Z,22.69
2022-09-06T23:17:41.101Z,22.68
2022-09-06T23:20:11.908Z,22.66
2022-09-06T23:22:41.852Z,22.63
2022-09-06T23:25:15.630Z,22.62
2022-09-06T23:27:45.493Z,22.61
2022-09-06T23:30:15.017Z,22.54
2022-09-06T23:32:44.055Z,22.50
2022-09-06T23:35:13.386Z,22.49
2022-09-06T23:37:42.580Z,22.44
2022-09-06T23:40:12.135Z,22.39
2022-09-06T23:42:41.515Z,22.34
2022-09-06T23:45:11.788Z,22.33
2022-09-06T23:47:42.600Z,22.34
2022-09-06T23:50:12.512Z,22.32
2022-09-06T23:52:41.679Z,22.32
2022-09-06T23:55:11.173Z,22.32
2022-09-06T23:57:40.913Z,22.31
